sensor_id;sensor_type;location;lat;lon;timestamp;P1;durP1;ratioP1;P2;durP2;ratioP2
21507;SDS011;10915;54.352;9.074;2023-08-07T00:00:21;2.07;;;1.70;;
21507;SDS011;10915;54.352;9.074;2023-08-07T00:02:47;2.30;;;1.30;;
21507;SDS011;10915;54.352;9.074;2023-08-07T00:05:14;1.93;;;1.20;;
21507;SDS011;10915;54.352;9.074;2023-08-07T00:07:41;2.33;;;1.67;;
21507;SDS011;10915;54.352;9.074;2023-08-07T00:10:07;3.93;;;1.67;;
21507;SDS011;10915;54.352;9.074;2023-08-07T00:12:33;1.53;;;1.20;;
21507;SDS011;10915;54.352;9.074;2023-08-07T00:14:59;1.40;;;1.30;;
21507;SDS011;10915;54.352;9.074;2023-08-07T00:17:25;2.20;;;1.53;;
21507;SDS011;10915;54.352;9.074;2023-08-07T00:19:51;2.20;;;1.43;;
21507;SDS011;10915;54.352;9.074;2023-08-07T00:22:17;1.70;;;1.17;;
21507;SDS011;10915;54.352;9.074;2023-08-07T00:24:42;3.67;;;1.33;;
21507;SDS011;10915;54.352;9.074;2023-08-07T00:27:08;4.27;;;1.80;;
21507;SDS011;10915;54.352;9.074;2023-08-07T00:29:35;2.97;;;1.70;;
21507;SDS011;10915;54.352;9.074;2023-08-07T00:32:02;2.97;;;1.60;;
21507;SDS011;10915;54.352;9.074;2023-08-07T00:34:28;1.47;;;1.37;;
21507;SDS011;10915;54.352;9.074;2023-08-07T00:36:53;1.93;;;1.43;;
21507;SDS011;10915;54.352;9.074;2023-08-07T00:39:19;2.20;;;1.73;;
21507;SDS011;10915;54.352;9.074;2023-08-07T00:41:45;3.97;;;1.70;;
21507;SDS011;10915;54.352;9.074;2023-08-07T00:44:10;5.60;;;1.97;;
21507;SDS011;10915;54.352;9.074;2023-08-07T00:46:36;2.03;;;1.60;;
21507;SDS011;10915;54.352;9.074;2023-08-07T00:49:04;3.70;;;2.23;;
21507;SDS011;10915;54.352;9.074;2023-08-07T00:51:30;5.07;;;2.23;;
21507;SDS011;10915;54.352;9.074;2023-08-07T00:53:56;3.60;;;2.30;;
21507;SDS011;10915;54.352;9.074;2023-08-07T00:56:21;3.93;;;2.30;;
21507;SDS011;10915;54.352;9.074;2023-08-07T00:58:48;3.47;;;2.57;;
21507;SDS011;10915;54.352;9.074;2023-08-07T01:01:15;7.07;;;2.60;;
21507;SDS011;10915;54.352;9.074;2023-08-07T01:03:40;3.37;;;2.37;;
21507;SDS011;10915;54.352;9.074;2023-08-07T01:06:06;6.57;;;2.80;;
21507;SDS011;10915;54.352;9.074;2023-08-07T01:08:32;3.60;;;2.40;;
21507;SDS011;10915;54.352;9.074;2023-08-07T01:11:07;4.97;;;2.40;;
21507;SDS011;10915;54.352;9.074;2023-08-07T01:13:48;7.20;;;2.40;;
21507;SDS011;10915;54.352;9.074;2023-08-07T01:16:18;5.33;;;2.60;;
21507;SDS011;10915;54.352;9.074;2023-08-07T01:19:12;4.87;;;2.50;;
21507;SDS011;10915;54.352;9.074;2023-08-07T01:21:48;6.20;;;2.60;;
21507;SDS011;10915;54.352;9.074;2023-08-07T01:24:14;3.53;;;2.73;;
21507;SDS011;10915;54.352;9.074;2023-08-07T01:26:39;3.87;;;2.30;;
21507;SDS011;10915;54.352;9.074;2023-08-07T01:29:26;6.63;;;2.60;;
21507;SDS011;10915;54.352;9.074;2023-08-07T01:31:58;6.20;;;3.03;;
21507;SDS011;10915;54.352;9.074;2023-08-07T01:34:28;7.33;;;3.00;;
21507;SDS011;10915;54.352;9.074;2023-08-07T01:36:54;4.27;;;2.60;;
21507;SDS011;10915;54.352;9.074;2023-08-07T01:39:23;4.70;;;2.70;;
21507;SDS011;10915;54.352;9.074;2023-08-07T01:41:50;6.23;;;2.83;;
21507;SDS011;10915;54.352;9.074;2023-08-07T01:44:15;5.77;;;3.00;;
21507;SDS011;10915;54.352;9.074;2023-08-07T01:46:41;7.80;;;3.20;;
21507;SDS011;10915;54.352;9.074;2023-08-07T01:49:07;5.20;;;2.50;;
21507;SDS011;10915;54.352;9.074;2023-08-07T01:51:32;4.90;;;2.70;;
21507;SDS011;10915;54.352;9.074;2023-08-07T01:53:58;8.07;;;3.07;;
21507;SDS011;10915;54.352;9.074;2023-08-07T01:56:23;5.27;;;2.70;;
21507;SDS011;10915;54.352;9.074;2023-08-07T01:58:49;11.83;;;3.23;;
21507;SDS011;10915;54.352;9.074;2023-08-07T02:01:14;4.57;;;2.63;;
21507;SDS011;10915;54.352;9.074;2023-08-07T02:03:40;6.93;;;3.23;;
21507;SDS011;10915;54.352;9.074;2023-08-07T02:06:05;5.73;;;3.10;;
21507;SDS011;10915;54.352;9.074;2023-08-07T02:08:31;6.37;;;3.33;;
21507;SDS011;10915;54.352;9.074;2023-08-07T02:10:57;5.13;;;2.80;;
21507;SDS011;10915;54.352;9.074;2023-08-07T02:13:22;6.77;;;2.43;;
21507;SDS011;10915;54.352;9.074;2023-08-07T02:15:48;6.87;;;2.63;;
21507;SDS011;10915;54.352;9.074;2023-08-07T02:18:14;11.60;;;3.23;;
21507;SDS011;10915;54.352;9.074;2023-08-07T02:20:39;10.57;;;3.00;;
21507;SDS011;10915;54.352;9.074;2023-08-07T02:23:05;8.60;;;2.63;;
21507;SDS011;10915;54.352;9.074;2023-08-07T02:25:30;8.60;;;2.17;;
21507;SDS011;10915;54.352;9.074;2023-08-07T02:27:56;8.43;;;2.80;;
21507;SDS011;10915;54.352;9.074;2023-08-07T02:30:21;7.60;;;2.70;;
21507;SDS011;10915;54.352;9.074;2023-08-07T02:32:47;9.57;;;3.40;;
21507;SDS011;10915;54.352;9.074;2023-08-07T02:35:13;6.67;;;3.27;;
21507;SDS011;10915;54.352;9.074;2023-08-07T02:37:38;8.47;;;3.10;;
21507;SDS011;10915;54.352;9.074;2023-08-07T02:40:04;7.97;;;2.97;;
21507;SDS011;10915;54.352;9.074;2023-08-07T02:42:30;7.67;;;3.00;;
21507;SDS011;10915;54.352;9.074;2023-08-07T02:44:55;6.10;;;2.30;;
21507;SDS011;10915;54.352;9.074;2023-08-07T02:47:21;6.43;;;2.40;;
21507;SDS011;10915;54.352;9.074;2023-08-07T02:49:47;11.20;;;3.03;;
21507;SDS011;10915;54.352;9.074;2023-08-07T02:52:12;10.20;;;2.90;;
21507;SDS011;10915;54.352;9.074;2023-08-07T02:54:38;8.23;;;2.77;;
21507;SDS011;10915;54.352;9.074;2023-08-07T02:57:04;7.67;;;3.00;;
21507;SDS011;10915;54.352;9.074;2023-08-07T02:59:29;9.00;;;2.53;;
21507;SDS011;10915;54.352;9.074;2023-08-07T03:01:55;6.60;;;2.70;;
21507;SDS011;10915;54.352;9.074;2023-08-07T03:04:21;13.67;;;2.90;;
21507;SDS011;10915;54.352;9.074;2023-08-07T03:06:47;11.30;;;2.87;;
21507;SDS011;10915;54.352;9.074;2023-08-07T03:09:12;6.67;;;2.40;;
21507;SDS011;10915;54.352;9.074;2023-08-07T03:11:38;8.47;;;2.63;;
21507;SDS011;10915;54.352;9.074;2023-08-07T03:14:03;10.10;;;2.63;;
21507;SDS011;10915;54.352;9.074;2023-08-07T03:16:29;6.83;;;2.60;;
21507;SDS011;10915;54.352;9.074;2023-08-07T03:18:55;10.10;;;2.87;;
21507;SDS011;10915;54.352;9.074;2023-08-07T03:21:20;9.33;;;3.07;;
21507;SDS011;10915;54.352;9.074;2023-08-07T03:23:46;9.47;;;3.20;;
21507;SDS011;10915;54.352;9.074;2023-08-07T03:26:12;8.53;;;3.33;;
21507;SDS011;10915;54.352;9.074;2023-08-07T03:28:38;7.87;;;3.00;;
21507;SDS011;10915;54.352;9.074;2023-08-07T03:31:04;10.63;;;3.00;;
21507;SDS011;10915;54.352;9.074;2023-08-07T03:33:30;9.33;;;2.83;;
21507;SDS011;10915;54.352;9.074;2023-08-07T03:35:55;7.27;;;2.80;;
21507;SDS011;10915;54.352;9.074;2023-08-07T03:38:21;11.03;;;2.83;;
21507;SDS011;10915;54.352;9.074;2023-08-07T03:40:50;11.50;;;2.80;;
21507;SDS011;10915;54.352;9.074;2023-08-07T03:43:16;10.63;;;3.07;;
21507;SDS011;10915;54.352;9.074;2023-08-07T03:45:41;8.83;;;2.47;;
21507;SDS011;10915;54.352;9.074;2023-08-07T03:48:10;9.97;;;3.43;;
21507;SDS011;10915;54.352;9.074;2023-08-07T03:50:39;8.37;;;2.93;;
21507;SDS011;10915;54.352;9.074;2023-08-07T03:53:05;9.63;;;3.10;;
21507;SDS011;10915;54.352;9.074;2023-08-07T03:55:32;7.97;;;3.33;;
21507;SDS011;10915;54.352;9.074;2023-08-07T03:57:58;9.03;;;2.93;;
21507;SDS011;10915;54.352;9.074;2023-08-07T04:00:23;9.27;;;2.93;;
21507;SDS011;10915;54.352;9.074;2023-08-07T04:02:52;7.57;;;2.40;;
21507;SDS011;10915;54.352;9.074;2023-08-07T04:05:18;8.43;;;2.77;;
21507;SDS011;10915;54.352;9.074;2023-08-07T04:07:43;9.33;;;3.03;;
21507;SDS011;10915;54.352;9.074;2023-08-07T04:10:09;9.77;;;3.47;;
21507;SDS011;10915;54.352;9.074;2023-08-07T04:12:35;9.60;;;3.20;;
21507;SDS011;10915;54.352;9.074;2023-08-07T04:15:00;8.27;;;2.80;;
21507;SDS011;10915;54.352;9.074;2023-08-07T04:17:34;9.77;;;3.10;;
21507;SDS011;10915;54.352;9.074;2023-08-07T04:20:00;12.20;;;3.40;;
21507;SDS011;10915;54.352;9.074;2023-08-07T04:22:28;9.40;;;3.40;;
21507;SDS011;10915;54.352;9.074;2023-08-07T04:24:57;11.70;;;3.53;;
21507;SDS011;10915;54.352;9.074;2023-08-07T04:27:42;9.27;;;3.37;;
21507;SDS011;10915;54.352;9.074;2023-08-07T04:30:34;10.97;;;3.87;;
21507;SDS011;10915;54.352;9.074;2023-08-07T04:33:15;10.60;;;3.80;;
21507;SDS011;10915;54.352;9.074;2023-08-07T04:35:41;14.30;;;3.67;;
21507;SDS011;10915;54.352;9.074;2023-08-07T04:38:19;10.37;;;4.07;;
21507;SDS011;10915;54.352;9.074;2023-08-07T04:40:48;11.53;;;3.70;;
21507;SDS011;10915;54.352;9.074;2023-08-07T04:43:18;12.93;;;3.60;;
21507;SDS011;10915;54.352;9.074;2023-08-07T04:45:50;13.67;;;3.90;;
21507;SDS011;10915;54.352;9.074;2023-08-07T04:48:15;11.50;;;3.53;;
21507;SDS011;10915;54.352;9.074;2023-08-07T04:51:01;13.47;;;4.23;;
21507;SDS011;10915;54.352;9.074;2023-08-07T04:53:58;16.33;;;4.63;;
21507;SDS011;10915;54.352;9.074;2023-08-07T04:57:03;11.90;;;4.00;;
21507;SDS011;10915;54.352;9.074;2023-08-07T05:00:27;18.37;;;4.57;;
21507;SDS011;10915;54.352;9.074;2023-08-07T05:03:09;13.27;;;4.10;;
21507;SDS011;10915;54.352;9.074;2023-08-07T05:05:34;16.10;;;4.53;;
21507;SDS011;10915;54.352;9.074;2023-08-07T05:08:22;13.00;;;4.63;;
21507;SDS011;10915;54.352;9.074;2023-08-07T05:13:59;16.53;;;4.37;;
21507;SDS011;10915;54.352;9.074;2023-08-07T05:17:02;16.23;;;4.20;;
21507;SDS011;10915;54.352;9.074;2023-08-07T05:19:40;14.97;;;5.03;;
21507;SDS011;10915;54.352;9.074;2023-08-07T05:24:41;15.57;;;3.93;;
21507;SDS011;10915;54.352;9.074;2023-08-07T05:27:09;17.60;;;4.60;;
21507;SDS011;10915;54.352;9.074;2023-08-07T05:29:35;15.27;;;4.03;;
21507;SDS011;10915;54.352;9.074;2023-08-07T05:32:11;16.23;;;4.87;;
21507;SDS011;10915;54.352;9.074;2023-08-07T05:34:37;11.23;;;4.60;;
21507;SDS011;10915;54.352;9.074;2023-08-07T05:37:04;14.77;;;4.83;;
21507;SDS011;10915;54.352;9.074;2023-08-07T05:39:30;15.17;;;4.80;;
21507;SDS011;10915;54.352;9.074;2023-08-07T05:41:56;18.37;;;4.47;;
21507;SDS011;10915;54.352;9.074;2023-08-07T05:44:23;13.67;;;4.40;;
21507;SDS011;10915;54.352;9.074;2023-08-07T05:46:49;16.97;;;4.30;;
21507;SDS011;10915;54.352;9.074;2023-08-07T05:49:14;11.93;;;3.93;;
21507;SDS011;10915;54.352;9.074;2023-08-07T05:51:40;17.03;;;4.40;;
21507;SDS011;10915;54.352;9.074;2023-08-07T05:54:06;13.57;;;3.87;;
21507;SDS011;10915;54.352;9.074;2023-08-07T05:56:32;13.80;;;5.20;;
21507;SDS011;10915;54.352;9.074;2023-08-07T05:58:57;13.30;;;4.27;;
21507;SDS011;10915;54.352;9.074;2023-08-07T06:01:23;11.87;;;4.17;;
21507;SDS011;10915;54.352;9.074;2023-08-07T06:03:55;14.47;;;4.40;;
21507;SDS011;10915;54.352;9.074;2023-08-07T06:06:21;11.80;;;4.00;;
21507;SDS011;10915;54.352;9.074;2023-08-07T06:08:46;11.97;;;4.40;;
21507;SDS011;10915;54.352;9.074;2023-08-07T06:11:12;11.07;;;3.60;;
21507;SDS011;10915;54.352;9.074;2023-08-07T06:13:38;17.83;;;5.03;;
21507;SDS011;10915;54.352;9.074;2023-08-07T06:16:05;16.03;;;4.97;;
21507;SDS011;10915;54.352;9.074;2023-08-07T06:18:31;12.30;;;4.20;;
21507;SDS011;10915;54.352;9.074;2023-08-07T06:20:56;13.20;;;4.23;;
21507;SDS011;10915;54.352;9.074;2023-08-07T06:23:22;11.10;;;4.10;;
21507;SDS011;10915;54.352;9.074;2023-08-07T06:25:48;16.77;;;4.47;;
21507;SDS011;10915;54.352;9.074;2023-08-07T06:28:13;12.73;;;4.63;;
21507;SDS011;10915;54.352;9.074;2023-08-07T06:30:39;13.30;;;3.87;;
21507;SDS011;10915;54.352;9.074;2023-08-07T06:33:05;14.73;;;3.97;;
21507;SDS011;10915;54.352;9.074;2023-08-07T06:35:30;13.90;;;3.97;;
21507;SDS011;10915;54.352;9.074;2023-08-07T06:37:56;16.20;;;4.47;;
21507;SDS011;10915;54.352;9.074;2023-08-07T06:40:21;18.90;;;3.90;;
21507;SDS011;10915;54.352;9.074;2023-08-07T06:42:47;16.60;;;4.40;;
21507;SDS011;10915;54.352;9.074;2023-08-07T06:45:13;15.80;;;4.00;;
21507;SDS011;10915;54.352;9.074;2023-08-07T06:47:38;15.63;;;4.27;;
21507;SDS011;10915;54.352;9.074;2023-08-07T06:50:04;14.07;;;4.33;;
21507;SDS011;10915;54.352;9.074;2023-08-07T06:52:30;17.30;;;4.40;;
21507;SDS011;10915;54.352;9.074;2023-08-07T06:54:55;13.17;;;4.47;;
21507;SDS011;10915;54.352;9.074;2023-08-07T06:57:21;10.87;;;3.87;;
21507;SDS011;10915;54.352;9.074;2023-08-07T06:59:47;14.47;;;4.40;;
21507;SDS011;10915;54.352;9.074;2023-08-07T07:02:12;11.77;;;4.10;;
21507;SDS011;10915;54.352;9.074;2023-08-07T07:04:38;15.60;;;4.13;;
21507;SDS011;10915;54.352;9.074;2023-08-07T07:07:03;12.53;;;4.43;;
21507;SDS011;10915;54.352;9.074;2023-08-07T07:09:29;13.03;;;4.30;;
21507;SDS011;10915;54.352;9.074;2023-08-07T07:11:55;16.83;;;4.93;;
21507;SDS011;10915;54.352;9.074;2023-08-07T07:14:21;10.67;;;3.73;;
21507;SDS011;10915;54.352;9.074;2023-08-07T07:16:47;14.00;;;4.07;;
21507;SDS011;10915;54.352;9.074;2023-08-07T07:19:13;16.00;;;4.93;;
21507;SDS011;10915;54.352;9.074;2023-08-07T07:21:38;14.07;;;4.33;;
21507;SDS011;10915;54.352;9.074;2023-08-07T07:24:04;12.80;;;4.30;;
21507;SDS011;10915;54.352;9.074;2023-08-07T07:26:31;10.97;;;3.53;;
21507;SDS011;10915;54.352;9.074;2023-08-07T07:28:56;14.70;;;4.07;;
21507;SDS011;10915;54.352;9.074;2023-08-07T07:31:22;16.20;;;4.43;;
21507;SDS011;10915;54.352;9.074;2023-08-07T07:33:48;16.63;;;4.30;;
21507;SDS011;10915;54.352;9.074;2023-08-07T07:36:16;14.17;;;4.57;;
21507;SDS011;10915;54.352;9.074;2023-08-07T07:38:45;14.17;;;4.57;;
21507;SDS011;10915;54.352;9.074;2023-08-07T07:41:12;16.53;;;4.73;;
21507;SDS011;10915;54.352;9.074;2023-08-07T07:43:38;18.00;;;4.40;;
21507;SDS011;10915;54.352;9.074;2023-08-07T07:46:04;13.53;;;4.10;;
21507;SDS011;10915;54.352;9.074;2023-08-07T07:48:29;12.47;;;4.03;;
21507;SDS011;10915;54.352;9.074;2023-08-07T07:51:01;13.30;;;4.40;;
21507;SDS011;10915;54.352;9.074;2023-08-07T07:53:28;10.27;;;3.93;;
21507;SDS011;10915;54.352;9.074;2023-08-07T07:55:54;15.73;;;4.27;;
21507;SDS011;10915;54.352;9.074;2023-08-07T07:58:20;15.47;;;4.00;;
21507;SDS011;10915;54.352;9.074;2023-08-07T08:00:45;11.03;;;3.80;;
21507;SDS011;10915;54.352;9.074;2023-08-07T08:03:11;12.30;;;3.93;;
21507;SDS011;10915;54.352;9.074;2023-08-07T08:05:37;13.20;;;3.87;;
21507;SDS011;10915;54.352;9.074;2023-08-07T08:08:03;14.90;;;3.80;;
21507;SDS011;10915;54.352;9.074;2023-08-07T08:10:30;22.60;;;5.10;;
21507;SDS011;10915;54.352;9.074;2023-08-07T08:12:55;7.83;;;3.07;;
21507;SDS011;10915;54.352;9.074;2023-08-07T08:15:21;9.87;;;3.27;;
21507;SDS011;10915;54.352;9.074;2023-08-07T08:17:48;12.83;;;4.23;;
21507;SDS011;10915;54.352;9.074;2023-08-07T08:20:13;12.27;;;4.67;;
21507;SDS011;10915;54.352;9.074;2023-08-07T08:22:45;11.33;;;3.70;;
21507;SDS011;10915;54.352;9.074;2023-08-07T08:25:11;14.13;;;4.00;;
21507;SDS011;10915;54.352;9.074;2023-08-07T08:27:40;12.33;;;3.80;;
21507;SDS011;10915;54.352;9.074;2023-08-07T08:30:06;14.67;;;4.07;;
21507;SDS011;10915;54.352;9.074;2023-08-07T08:32:32;13.70;;;4.07;;
21507;SDS011;10915;54.352;9.074;2023-08-07T08:34:58;10.37;;;3.67;;
21507;SDS011;10915;54.352;9.074;2023-08-07T08:37:23;13.37;;;3.87;;
21507;SDS011;10915;54.352;9.074;2023-08-07T08:39:49;16.60;;;4.93;;
21507;SDS011;10915;54.352;9.074;2023-08-07T08:42:15;15.53;;;4.90;;
21507;SDS011;10915;54.352;9.074;2023-08-07T08:44:44;11.30;;;3.87;;
21507;SDS011;10915;54.352;9.074;2023-08-07T08:47:17;13.03;;;3.67;;
21507;SDS011;10915;54.352;9.074;2023-08-07T08:49:47;17.00;;;3.90;;
21507;SDS011;10915;54.352;9.074;2023-08-07T08:52:15;12.07;;;3.50;;
21507;SDS011;10915;54.352;9.074;2023-08-07T08:54:42;13.33;;;3.87;;
21507;SDS011;10915;54.352;9.074;2023-08-07T08:57:08;14.00;;;3.90;;
21507;SDS011;10915;54.352;9.074;2023-08-07T08:59:36;13.63;;;4.50;;
21507;SDS011;10915;54.352;9.074;2023-08-07T09:02:02;11.23;;;3.60;;
21507;SDS011;10915;54.352;9.074;2023-08-07T09:04:28;18.27;;;4.40;;
21507;SDS011;10915;54.352;9.074;2023-08-07T09:06:54;8.73;;;3.40;;
21507;SDS011;10915;54.352;9.074;2023-08-07T09:09:20;13.17;;;4.20;;
21507;SDS011;10915;54.352;9.074;2023-08-07T09:11:47;11.17;;;3.90;;
21507;SDS011;10915;54.352;9.074;2023-08-07T09:14:19;10.73;;;3.50;;
21507;SDS011;10915;54.352;9.074;2023-08-07T09:16:47;21.27;;;9.60;;
21507;SDS011;10915;54.352;9.074;2023-08-07T09:19:13;21.77;;;4.40;;
21507;SDS011;10915;54.352;9.074;2023-08-07T09:21:39;15.07;;;5.10;;
21507;SDS011;10915;54.352;9.074;2023-08-07T09:24:04;14.30;;;4.53;;
21507;SDS011;10915;54.352;9.074;2023-08-07T09:26:31;12.63;;;3.93;;
21507;SDS011;10915;54.352;9.074;2023-08-07T09:29:01;13.20;;;4.37;;
21507;SDS011;10915;54.352;9.074;2023-08-07T09:31:27;13.83;;;5.13;;
21507;SDS011;10915;54.352;9.074;2023-08-07T09:33:58;10.20;;;4.13;;
21507;SDS011;10915;54.352;9.074;2023-08-07T09:36:29;11.97;;;4.33;;
21507;SDS011;10915;54.352;9.074;2023-08-07T09:39:01;11.47;;;3.87;;
21507;SDS011;10915;54.352;9.074;2023-08-07T09:41:28;12.17;;;3.63;;
21507;SDS011;10915;54.352;9.074;2023-08-07T09:43:57;9.40;;;3.93;;
21507;SDS011;10915;54.352;9.074;2023-08-07T09:46:25;11.23;;;3.43;;
21507;SDS011;10915;54.352;9.074;2023-08-07T09:48:51;14.50;;;3.67;;
21507;SDS011;10915;54.352;9.074;2023-08-07T09:51:17;14.33;;;4.30;;
21507;SDS011;10915;54.352;9.074;2023-08-07T09:53:42;11.47;;;3.60;;
21507;SDS011;10915;54.352;9.074;2023-08-07T09:56:08;13.33;;;3.93;;
21507;SDS011;10915;54.352;9.074;2023-08-07T09:58:34;14.47;;;4.27;;
21507;SDS011;10915;54.352;9.074;2023-08-07T10:01:03;10.60;;;3.23;;
21507;SDS011;10915;54.352;9.074;2023-08-07T10:03:29;11.83;;;4.00;;
21507;SDS011;10915;54.352;9.074;2023-08-07T10:05:55;10.87;;;3.30;;
21507;SDS011;10915;54.352;9.074;2023-08-07T10:08:21;11.73;;;4.20;;
21507;SDS011;10915;54.352;9.074;2023-08-07T10:10:47;10.43;;;3.30;;
21507;SDS011;10915;54.352;9.074;2023-08-07T10:13:13;10.53;;;3.27;;
21507;SDS011;10915;54.352;9.074;2023-08-07T10:15:39;12.00;;;4.07;;
21507;SDS011;10915;54.352;9.074;2023-08-07T10:18:07;12.43;;;2.70;;
21507;SDS011;10915;54.352;9.074;2023-08-07T10:20:36;10.73;;;3.10;;
21507;SDS011;10915;54.352;9.074;2023-08-07T10:23:08;12.47;;;2.90;;
21507;SDS011;10915;54.352;9.074;2023-08-07T10:25:36;11.33;;;3.43;;
21507;SDS011;10915;54.352;9.074;2023-08-07T10:28:06;14.90;;;4.00;;
21507;SDS011;10915;54.352;9.074;2023-08-07T10:30:37;13.27;;;3.17;;
21507;SDS011;10915;54.352;9.074;2023-08-07T10:33:03;11.70;;;3.70;;
21507;SDS011;10915;54.352;9.074;2023-08-07T10:35:31;12.73;;;3.90;;
21507;SDS011;10915;54.352;9.074;2023-08-07T10:38:07;13.07;;;3.63;;
21507;SDS011;10915;54.352;9.074;2023-08-07T10:40:34;12.20;;;3.20;;
21507;SDS011;10915;54.352;9.074;2023-08-07T10:43:19;14.87;;;3.60;;
21507;SDS011;10915;54.352;9.074;2023-08-07T10:45:48;11.10;;;3.13;;
21507;SDS011;10915;54.352;9.074;2023-08-07T10:48:17;8.87;;;3.47;;
21507;SDS011;10915;54.352;9.074;2023-08-07T10:50:57;14.73;;;3.97;;
21507;SDS011;10915;54.352;9.074;2023-08-07T10:55:56;11.33;;;3.50;;
21507;SDS011;10915;54.352;9.074;2023-08-07T10:58:42;12.63;;;3.40;;
21507;SDS011;10915;54.352;9.074;2023-08-07T11:01:19;9.53;;;3.13;;
21507;SDS011;10915;54.352;9.074;2023-08-07T11:03:55;8.53;;;2.60;;
21507;SDS011;10915;54.352;9.074;2023-08-07T11:06:26;11.07;;;4.00;;
21507;SDS011;10915;54.352;9.074;2023-08-07T11:08:53;11.20;;;2.60;;
21507;SDS011;10915;54.352;9.074;2023-08-07T11:11:19;10.83;;;2.90;;
21507;SDS011;10915;54.352;9.074;2023-08-07T11:13:45;10.93;;;2.77;;
21507;SDS011;10915;54.352;9.074;2023-08-07T11:16:11;10.53;;;3.13;;
21507;SDS011;10915;54.352;9.074;2023-08-07T11:18:37;8.70;;;2.73;;
21507;SDS011;10915;54.352;9.074;2023-08-07T11:21:07;9.83;;;3.07;;
21507;SDS011;10915;54.352;9.074;2023-08-07T11:23:33;13.73;;;3.10;;
21507;SDS011;10915;54.352;9.074;2023-08-07T11:26:03;17.70;;;3.50;;
21507;SDS011;10915;54.352;9.074;2023-08-07T11:31:21;11.47;;;3.27;;
21507;SDS011;10915;54.352;9.074;2023-08-07T11:34:00;13.27;;;3.63;;
21507;SDS011;10915;54.352;9.074;2023-08-07T11:36:28;13.23;;;3.47;;
21507;SDS011;10915;54.352;9.074;2023-08-07T11:39:05;12.13;;;3.53;;
21507;SDS011;10915;54.352;9.074;2023-08-07T11:41:43;10.43;;;3.47;;
21507;SDS011;10915;54.352;9.074;2023-08-07T11:44:42;8.53;;;2.90;;
21507;SDS011;10915;54.352;9.074;2023-08-07T11:47:11;10.03;;;3.13;;
21507;SDS011;10915;54.352;9.074;2023-08-07T11:49:44;11.77;;;3.43;;
21507;SDS011;10915;54.352;9.074;2023-08-07T11:55:22;10.87;;;3.53;;
21507;SDS011;10915;54.352;9.074;2023-08-07T11:57:55;12.60;;;3.97;;
21507;SDS011;10915;54.352;9.074;2023-08-07T12:00:48;13.57;;;4.20;;
21507;SDS011;10915;54.352;9.074;2023-08-07T12:06:51;11.40;;;3.23;;
21507;SDS011;10915;54.352;9.074;2023-08-07T12:09:55;8.50;;;2.90;;
21507;SDS011;10915;54.352;9.074;2023-08-07T12:12:49;13.70;;;3.80;;
21507;SDS011;10915;54.352;9.074;2023-08-07T12:15:24;11.87;;;3.23;;
21507;SDS011;10915;54.352;9.074;2023-08-07T12:18:02;12.63;;;3.90;;
21507;SDS011;10915;54.352;9.074;2023-08-07T12:20:43;16.60;;;4.87;;
21507;SDS011;10915;54.352;9.074;2023-08-07T12:23:34;13.80;;;3.60;;
21507;SDS011;10915;54.352;9.074;2023-08-07T12:26:12;10.43;;;3.43;;
21507;SDS011;10915;54.352;9.074;2023-08-07T12:28:41;13.00;;;3.53;;
21507;SDS011;10915;54.352;9.074;2023-08-07T12:31:20;15.03;;;4.57;;
21507;SDS011;10915;54.352;9.074;2023-08-07T12:33:52;14.17;;;3.80;;
21507;SDS011;10915;54.352;9.074;2023-08-07T12:37:14;14.80;;;3.73;;
21507;SDS011;10915;54.352;9.074;2023-08-07T12:39:42;13.80;;;3.97;;
21507;SDS011;10915;54.352;9.074;2023-08-07T12:42:29;12.33;;;3.73;;
21507;SDS011;10915;54.352;9.074;2023-08-07T12:47:44;19.07;;;4.07;;
21507;SDS011;10915;54.352;9.074;2023-08-07T12:53:22;12.97;;;3.87;;
21507;SDS011;10915;54.352;9.074;2023-08-07T12:55:54;16.57;;;4.30;;
21507;SDS011;10915;54.352;9.074;2023-08-07T12:58:43;17.00;;;4.50;;
21507;SDS011;10915;54.352;9.074;2023-08-07T13:01:11;14.53;;;4.10;;
21507;SDS011;10915;54.352;9.074;2023-08-07T13:03:36;20.77;;;4.80;;
21507;SDS011;10915;54.352;9.074;2023-08-07T13:06:05;12.17;;;4.00;;
21507;SDS011;10915;54.352;9.074;2023-08-07T13:08:45;13.40;;;4.57;;
21507;SDS011;10915;54.352;9.074;2023-08-07T13:11:33;12.07;;;4.20;;
21507;SDS011;10915;54.352;9.074;2023-08-07T13:17:34;15.43;;;4.33;;
21507;SDS011;10915;54.352;9.074;2023-08-07T13:20:01;14.00;;;3.83;;
21507;SDS011;10915;54.352;9.074;2023-08-07T13:23:01;10.07;;;3.20;;
21507;SDS011;10915;54.352;9.074;2023-08-07T13:25:31;12.13;;;3.60;;
21507;SDS011;10915;54.352;9.074;2023-08-07T13:27:59;9.93;;;3.33;;
21507;SDS011;10915;54.352;9.074;2023-08-07T13:30:44;14.47;;;3.47;;
21507;SDS011;10915;54.352;9.074;2023-08-07T13:33:28;11.33;;;4.03;;
21507;SDS011;10915;54.352;9.074;2023-08-07T13:35:54;11.87;;;3.83;;
21507;SDS011;10915;54.352;9.074;2023-08-07T13:38:34;9.70;;;3.00;;
21507;SDS011;10915;54.352;9.074;2023-08-07T13:41:28;10.80;;;3.70;;
21507;SDS011;10915;54.352;9.074;2023-08-07T13:43:57;8.90;;;3.33;;
21507;SDS011;10915;54.352;9.074;2023-08-07T13:49:27;12.37;;;3.80;;
21507;SDS011;10915;54.352;9.074;2023-08-07T13:52:04;12.53;;;3.63;;
21507;SDS011;10915;54.352;9.074;2023-08-07T13:54:36;13.87;;;3.90;;
21507;SDS011;10915;54.352;9.074;2023-08-07T13:57:05;10.10;;;3.67;;
21507;SDS011;10915;54.352;9.074;2023-08-07T13:59:36;10.07;;;3.87;;
21507;SDS011;10915;54.352;9.074;2023-08-07T14:02:05;9.77;;;3.43;;
21507;SDS011;10915;54.352;9.074;2023-08-07T14:04:52;14.17;;;4.03;;
21507;SDS011;10915;54.352;9.074;2023-08-07T14:07:52;12.20;;;3.73;;
21507;SDS011;10915;54.352;9.074;2023-08-07T14:10:34;14.50;;;3.90;;
21507;SDS011;10915;54.352;9.074;2023-08-07T14:16:19;11.80;;;3.87;;
21507;SDS011;10915;54.352;9.074;2023-08-07T14:19:14;11.53;;;3.70;;
21507;SDS011;10915;54.352;9.074;2023-08-07T14:21:40;11.63;;;3.83;;
21507;SDS011;10915;54.352;9.074;2023-08-07T14:24:35;16.63;;;4.70;;
21507;SDS011;10915;54.352;9.074;2023-08-07T14:27:16;13.47;;;4.27;;
21507;SDS011;10915;54.352;9.074;2023-08-07T14:29:57;12.70;;;3.37;;
21507;SDS011;10915;54.352;9.074;2023-08-07T14:32:22;11.87;;;3.20;;
21507;SDS011;10915;54.352;9.074;2023-08-07T14:35:26;14.30;;;3.20;;
21507;SDS011;10915;54.352;9.074;2023-08-07T14:37:58;12.93;;;3.20;;
21507;SDS011;10915;54.352;9.074;2023-08-07T14:40:36;9.47;;;2.80;;
21507;SDS011;10915;54.352;9.074;2023-08-07T14:43:12;9.43;;;3.47;;
21507;SDS011;10915;54.352;9.074;2023-08-07T14:45:43;16.90;;;4.90;;
21507;SDS011;10915;54.352;9.074;2023-08-07T14:48:13;14.20;;;4.00;;
21507;SDS011;10915;54.352;9.074;2023-08-07T14:50:43;14.37;;;3.63;;
21507;SDS011;10915;54.352;9.074;2023-08-07T14:53:14;11.00;;;4.07;;
21507;SDS011;10915;54.352;9.074;2023-08-07T14:55:40;13.20;;;3.90;;
21507;SDS011;10915;54.352;9.074;2023-08-07T14:58:15;16.83;;;4.23;;
21507;SDS011;10915;54.352;9.074;2023-08-07T15:00:53;13.47;;;4.23;;
21507;SDS011;10915;54.352;9.074;2023-08-07T15:03:31;16.17;;;4.33;;
21507;SDS011;10915;54.352;9.074;2023-08-07T15:06:08;15.40;;;4.77;;
21507;SDS011;10915;54.352;9.074;2023-08-07T15:08:39;15.40;;;4.90;;
21507;SDS011;10915;54.352;9.074;2023-08-07T15:11:16;11.33;;;4.27;;
21507;SDS011;10915;54.352;9.074;2023-08-07T15:13:47;12.80;;;4.60;;
21507;SDS011;10915;54.352;9.074;2023-08-07T15:16:20;14.43;;;4.17;;
21507;SDS011;10915;54.352;9.074;2023-08-07T15:19:05;12.17;;;4.10;;
21507;SDS011;10915;54.352;9.074;2023-08-07T15:21:38;15.50;;;3.90;;
21507;SDS011;10915;54.352;9.074;2023-08-07T15:24:04;13.90;;;3.83;;
21507;SDS011;10915;54.352;9.074;2023-08-07T15:26:35;13.97;;;4.43;;
21507;SDS011;10915;54.352;9.074;2023-08-07T15:29:10;15.33;;;4.40;;